createdAt,value
2019-05-16T00:01:04.098Z,18.43
2019-05-16T00:06:08.856Z,15.20
2019-05-16T00:11:13.788Z,19.77
2019-05-16T00:16:18.928Z,20.00
2019-05-16T00:21:23.826Z,15.90
2019-05-16T00:26:28.674Z,17.90
2019-05-16T00:31:33.484Z,17.17
2019-05-16T00:36:38.370Z,14.83
2019-05-16T00:41:43.032Z,17.40
2019-05-16T00:46:48.599Z,18.90
2019-05-16T00:51:53.608Z,18.77
2019-05-16T00:57:00.708Z,21.13
2019-05-16T01:02:05.550Z,19.90
2019-05-16T01:07:10.385Z,15.83
2019-05-16T01:12:17.701Z,18.67
2019-05-16T01:17:21.708Z,15.70
2019-05-16T01:22:28.838Z,16.17
2019-05-16T01:27:33.002Z,17.10
2019-05-16T01:32:39.121Z,19.23
2019-05-16T01:37:58.127Z,16.77
2019-05-16T01:43:03.290Z,19.70
2019-05-16T01:48:08.381Z,18.63
2019-05-16T01:53:13.550Z,24.90
2019-05-16T01:58:19.939Z,15.77
2019-05-16T02:03:25.502Z,18.67
2019-05-16T02:08:30.338Z,14.80
2019-05-16T02:13:35.239Z,14.67
2019-05-16T02:18:40.006Z,14.17
2019-05-16T02:23:44.845Z,19.60
2019-05-16T02:28:50.804Z,17.27
2019-05-16T02:33:56.005Z,15.50
2019-05-16T02:39:01.977Z,13.17
2019-05-16T02:44:07.085Z,12.40
2019-05-16T02:49:11.959Z,13.77
2019-05-16T02:54:16.771Z,12.40
2019-05-16T02:59:21.596Z,16.63
2019-05-16T03:04:26.434Z,12.90
2019-05-16T03:09:33.479Z,16.07
2019-05-16T03:14:41.712Z,14.33
2019-05-16T03:19:47.033Z,16.03
2019-05-16T03:24:51.870Z,11.93
2019-05-16T03:29:56.706Z,13.70
2019-05-16T03:35:04.945Z,11.03
2019-05-16T03:40:10.837Z,13.27
2019-05-16T03:45:14.667Z,14.67
2019-05-16T03:50:21.814Z,14.20
2019-05-16T03:55:25.882Z,31.90
2019-05-16T04:00:52.071Z,10.77
2019-05-16T04:05:55.117Z,13.90
2019-05-16T04:11:01.488Z,14.40
2019-05-16T04:16:06.541Z,10.97
2019-05-16T04:21:12.002Z,10.27
2019-05-16T04:26:17.257Z,13.43
2019-05-16T04:31:22.317Z,10.13
2019-05-16T04:36:27.291Z,39.37
2019-05-16T04:41:32.055Z,11.17
2019-05-16T04:46:36.812Z,10.90
2019-05-16T04:51:41.823Z,12.20
2019-05-16T04:56:46.598Z,8.73
2019-05-16T05:01:51.504Z,11.47
2019-05-16T05:06:56.387Z,12.40
2019-05-16T05:12:04.372Z,11.30
2019-05-16T05:17:10.502Z,17.20
2019-05-16T05:22:14.201Z,9.30
2019-05-16T05:27:19.723Z,10.17
2019-05-16T05:32:24.744Z,11.83
2019-05-16T05:37:30.159Z,11.87
2019-05-16T05:42:35.334Z,12.30
2019-05-16T05:47:40.598Z,12.07
2019-05-16T05:52:46.287Z,12.13
2019-05-16T05:57:51.514Z,14.20
2019-05-16T06:02:56.348Z,20.90
2019-05-16T06:08:01.193Z,21.93
2019-05-16T06:13:06.034Z,13.13
2019-05-16T06:18:10.997Z,12.77
2019-05-16T06:23:15.827Z,14.13
2019-05-16T06:28:21.312Z,14.50
2019-05-16T06:33:26.589Z,18.53
2019-05-16T06:38:31.676Z,16.33
2019-05-16T06:43:36.514Z,17.57
2019-05-16T06:48:41.274Z,14.97
2019-05-16T06:53:46.109Z,13.90
2019-05-16T06:58:52.013Z,13.27
2019-05-16T07:03:57.005Z,13.47
2019-05-16T07:09:01.769Z,10.10
2019-05-16T07:14:06.610Z,10.17
2019-05-16T07:19:11.474Z,13.10
2019-05-16T07:24:17.034Z,10.90
2019-05-16T07:29:22.142Z,11.43
2019-05-16T07:34:26.983Z,8.57
2019-05-16T07:39:32.135Z,9.07
2019-05-16T07:44:36.889Z,7.70
2019-05-16T07:49:41.732Z,9.23
2019-05-16T07:54:46.565Z,8.43
2019-05-16T07:59:51.392Z,7.93
2019-05-16T08:04:56.196Z,9.20
2019-05-16T08:10:00.997Z,9.77
2019-05-16T08:15:10.014Z,15.07
2019-05-16T08:20:14.484Z,16.20
2019-05-16T08:25:20.391Z,21.07
2019-05-16T08:30:25.703Z,13.23
2019-05-16T08:35:31.596Z,14.10
2019-05-16T08:41:01.250Z,12.10
2019-05-16T08:45:43.513Z,10.37
2019-05-16T08:50:54.040Z,11.80
2019-05-16T08:55:54.804Z,12.43
2019-05-16T09:01:02.153Z,13.50
2019-05-16T09:06:06.027Z,13.57
2019-05-16T09:11:29.382Z,13.60
2019-05-16T09:16:18.268Z,16.50
2019-05-16T09:21:23.098Z,12.27
2019-05-16T09:26:28.938Z,12.63
2019-05-16T09:31:33.870Z,11.00
2019-05-16T09:36:38.696Z,8.90
2019-05-16T09:41:54.317Z,12.07
2019-05-16T09:46:50.041Z,8.83
2019-05-16T09:51:56.917Z,12.60
2019-05-16T09:57:01.748Z,9.27
2019-05-16T10:02:07.293Z,6.33
2019-05-16T10:07:12.716Z,7.00
2019-05-16T10:12:18.677Z,7.13
2019-05-16T10:17:23.637Z,10.50
2019-05-16T10:22:28.472Z,8.53
2019-05-16T10:27:33.292Z,8.67
2019-05-16T10:32:39.836Z,9.63
2019-05-16T10:37:46.999Z,11.10
2019-05-16T10:42:51.325Z,9.10
2019-05-16T10:47:56.145Z,9.13
2019-05-16T10:53:22.313Z,8.47
2019-05-16T10:58:07.678Z,9.70
2019-05-16T11:03:12.978Z,7.17
2019-05-16T11:08:17.808Z,8.97
2019-05-16T11:13:22.662Z,8.53
2019-05-16T11:18:27.530Z,10.50
2019-05-16T11:23:32.419Z,7.60
2019-05-16T11:28:37.250Z,8.47
2019-05-16T11:33:42.196Z,8.77
2019-05-16T11:38:47.685Z,8.67
2019-05-16T11:43:52.752Z,8.03
2019-05-16T11:48:57.684Z,14.40
2019-05-16T11:54:02.522Z,7.40
2019-05-16T11:59:07.904Z,9.37
2019-05-16T12:04:12.900Z,4.67
2019-05-16T12:09:17.979Z,3.73
2019-05-16T12:14:22.881Z,2.93
2019-05-16T12:19:34.203Z,3.03
2019-05-16T12:24:38.789Z,7.17
2019-05-16T12:29:40.703Z,2.23
2019-05-16T12:34:46.350Z,2.33
2019-05-16T12:39:51.293Z,2.80
2019-05-16T12:44:56.383Z,3.47
2019-05-16T12:50:01.467Z,4.27
2019-05-16T12:55:08.219Z,3.03
2019-05-16T13:00:16.345Z,4.70
2019-05-16T13:05:20.638Z,7.87
2019-05-16T13:10:26.970Z,3.53
2019-05-16T13:15:32.127Z,3.90
2019-05-16T13:20:39.340Z,7.17
2019-05-16T13:25:43.520Z,7.27
2019-05-16T13:30:48.384Z,3.57
2019-05-16T13:35:53.352Z,5.83
2019-05-16T13:40:58.185Z,5.83
2019-05-16T13:46:03.438Z,4.50
2019-05-16T13:51:14.953Z,4.70
2019-05-16T13:56:17.350Z,5.80
2019-05-16T14:01:22.079Z,4.67
2019-05-16T14:06:27.218Z,4.53
2019-05-16T14:11:32.047Z,5.00
2019-05-16T14:16:37.712Z,5.70
2019-05-16T14:21:42.840Z,11.30
2019-05-16T14:26:47.670Z,5.70
2019-05-16T14:31:52.509Z,4.93
2019-05-16T14:36:57.898Z,8.20
2019-05-16T14:42:02.936Z,10.80
2019-05-16T14:47:07.810Z,8.07
2019-05-16T14:52:12.741Z,8.50
2019-05-16T14:57:17.584Z,9.33
2019-05-16T15:02:22.418Z,7.37
2019-05-16T15:07:27.633Z,8.77
2019-05-16T15:12:32.907Z,8.47
2019-05-16T15:17:37.744Z,6.53
2019-05-16T15:22:42.499Z,8.47
2019-05-16T15:27:47.860Z,7.63
2019-05-16T15:32:53.150Z,12.70
2019-05-16T15:37:58.993Z,5.57
2019-05-16T15:43:04.123Z,5.60
2019-05-16T15:48:09.969Z,11.47
2019-05-16T15:53:17.512Z,9.23
2019-05-16T15:58:21.641Z,12.60
2019-05-16T16:03:27.301Z,14.90
2019-05-16T16:08:32.618Z,16.50
2019-05-16T16:13:37.764Z,14.10
2019-05-16T16:18:42.709Z,9.43
2019-05-16T16:23:47.570Z,13.63
2019-05-16T16:28:52.657Z,13.70
2019-05-16T16:33:57.629Z,19.67
2019-05-16T16:39:03.677Z,24.70
2019-05-16T16:44:08.743Z,167.47
2019-05-16T16:49:13.858Z,40.37
2019-05-16T16:54:18.705Z,46.40
2019-05-16T16:59:23.535Z,67.63
2019-05-16T17:04:28.374Z,50.87
2019-05-16T17:09:33.209Z,54.77
2019-05-16T17:14:37.988Z,53.90
2019-05-16T17:19:42.957Z,55.57
2019-05-16T17:24:47.890Z,60.03
2019-05-16T17:29:52.750Z,55.60
2019-05-16T17:34:57.713Z,57.33
2019-05-16T17:40:02.571Z,54.07
2019-05-16T17:45:08.346Z,59.40
2019-05-16T17:50:13.614Z,51.27
2019-05-16T17:55:18.791Z,49.00
2019-05-16T18:00:28.661Z,50.40
2019-05-16T18:05:30.776Z,47.10
2019-05-16T18:10:36.476Z,47.43
2019-05-16T18:15:41.772Z,47.57
2019-05-16T18:20:55.881Z,42.27
2019-05-16T18:25:53.063Z,51.30
2019-05-16T18:30:57.925Z,52.00
2019-05-16T18:36:02.786Z,55.17
2019-05-16T18:41:08.038Z,51.93
2019-05-16T18:46:13.304Z,46.40
2019-05-16T18:51:18.166Z,54.90
2019-05-16T18:56:23.002Z,77.70
2019-05-16T19:01:27.837Z,70.67
2019-05-16T19:06:32.671Z,68.77
2019-05-16T19:11:37.433Z,70.47
2019-05-16T19:16:42.264Z,70.90
2019-05-16T19:21:47.209Z,114.13
2019-05-16T19:26:52.228Z,119.37
2019-05-16T19:31:57.190Z,121.10
2019-05-16T19:37:02.038Z,109.63
2019-05-16T19:42:06.927Z,139.27
2019-05-16T19:47:11.764Z,127.60
2019-05-16T19:52:16.613Z,115.57
2019-05-16T19:57:21.569Z,128.40
2019-05-16T20:02:27.315Z,139.33
2019-05-16T20:07:32.472Z,120.30
2019-05-16T20:12:37.672Z,124.27
2019-05-16T20:17:52.171Z,108.07
2019-05-16T20:22:48.974Z,96.10
2019-05-16T20:27:53.877Z,91.77
2019-05-16T20:32:58.712Z,86.07
2019-05-16T20:38:03.540Z,78.70
2019-05-16T20:43:08.390Z,73.70
2019-05-16T20:48:15.346Z,89.23
2019-05-16T20:53:19.684Z,89.30
2019-05-16T20:58:24.454Z,76.37
2019-05-16T21:03:29.289Z,67.73
2019-05-16T21:08:34.124Z,64.63
2019-05-16T21:13:39.223Z,74.07
2019-05-16T21:18:44.054Z,69.47
2019-05-16T21:23:48.901Z,72.67
2019-05-16T21:28:53.786Z,72.07
2019-05-16T21:33:58.615Z,67.83
2019-05-16T21:39:08.089Z,77.23
2019-05-16T21:44:11.177Z,78.83
2019-05-16T21:49:16.487Z,81.97
2019-05-16T21:54:23.137Z,71.57
2019-05-16T21:59:28.845Z,76.70
2019-05-16T22:04:33.810Z,66.87
2019-05-16T22:09:38.709Z,73.13
2019-05-16T22:14:47.205Z,71.80
2019-05-16T22:19:51.962Z,68.30
2019-05-16T22:24:57.370Z,63.10
2019-05-16T22:30:02.318Z,58.47
2019-05-16T22:35:10.846Z,67.67
2019-05-16T22:40:17.181Z,64.40
2019-05-16T22:45:22.714Z,63.93
2019-05-16T22:50:27.557Z,63.37
2019-05-16T22:55:32.401Z,140.67
2019-05-16T23:00:41.062Z,83.97
2019-05-16T23:05:43.813Z,73.30
2019-05-16T23:10:48.716Z,66.70
2019-05-16T23:15:57.154Z,62.40
2019-05-16T23:21:01.729Z,56.53
2019-05-16T23:26:06.605Z,56.53
2019-05-16T23:31:11.380Z,52.63
2019-05-16T23:36:17.461Z,52.03
2019-05-16T23:41:22.761Z,51.00
2019-05-16T23:46:28.005Z,44.93
2019-05-16T23:51:32.886Z,52.57
2019-05-16T23:56:37.726Z,55.07
